Fecha, hora, temperatura, viento dirección y velocidad, humedad y presión.

  • 23-08-2019 15:00:00 | 31.50°C | Este |11.00 km/h | 48.00% | 1001.10 hPa
  • 23-08-2019 14:00:00 | 29.90°C | Este |9.00 km/h | 50.00% | 1001.50 hPa
  • 23-08-2019 13:00:00 | 28.40°C | Nordeste |8.00 km/h | 53.00% | 1001.80 hPa
  • 23-08-2019 12:00:00 | 26.80°C | Sur |8.00 km/h | 47.00% | 1002.20 hPa
  • 23-08-2019 11:00:00 | 23.20°C | Sur |16.00 km/h | 58.00% | 1002.30 hPa
  • 23-08-2019 10:00:00 | 20.00°C | Sur |16.00 km/h | 71.00% | 1002.30 hPa
  • 23-08-2019 09:00:00 | 17.50°C | Sur |14.00 km/h | 83.00% | 1002.50 hPa
  • 23-08-2019 08:00:00 | 16.10°C | Sur |12.00 km/h | 91.00% | 1002.80 hPa
  • 23-08-2019 07:00:00 | 15.90°C | Sur |12.00 km/h | 93.00% | 1003.10 hPa
  • 23-08-2019 06:00:00 | 15.50°C | Sur |8.00 km/h | 95.00% | 1003.50 hPa
  • 23-08-2019 05:00:00 | 16.00°C | Sur |8.00 km/h | 94.00% | 1003.80 hPa
  • 23-08-2019 04:00:00 | 15.70°C | Sudeste |13.00 km/h | 95.00% | 1004.00 hPa
  • 23-08-2019 03:00:00 | 16.60°C | Sudeste |9.00 km/h | 92.00% | 1004.60 hPa
  • 23-08-2019 02:00:00 | 17.10°C | Sudeste |12.00 km/h | 91.00% | 1004.90 hPa
  • 23-08-2019 01:00:00 | 17.10°C | Sudeste |17.00 km/h | 92.00% | 1004.90 hPa
  • 23-08-2019 00:00:00 | 17.70°C | Sudeste |14.00 km/h | 89.00% | 1005.30 hPa
  • 22-08-2019 23:00:00 | 18.10°C | Sudeste |16.00 km/h | 85.00% | 1005.30 hPa
  • 22-08-2019 22:00:00 | 19.80°C | Este |19.00 km/h | 78.00% | 1005.10 hPa
  • 22-08-2019 21:00:00 | 21.20°C | Este |15.00 km/h | 73.00% | 1004.80 hPa
  • 22-08-2019 20:00:00 | 22.60°C | Este |24.00 km/h | 71.00% | 1004.70 hPa
  • 22-08-2019 19:00:00 | 23.70°C | Este |27.00 km/h | 63.00% | 1005.10 hPa
  • 22-08-2019 18:00:00 | 24.80°C | Este |22.00 km/h | 55.00% | 1005.40 hPa
  • 22-08-2019 17:00:00 | 24.90°C | Este |19.00 km/h | 54.00% | 1005.80 hPa
  • 22-08-2019 16:00:00 | 25.20°C | Este |21.00 km/h | 52.00% | 1005.90 hPa
    • diseño web asturias Información sobre el estado de las mareas, altura de la marejada, temperatura del agua y otros datos de Gijón en Asturias.

      Surf Gijón